PHKOYPDN

Guest
Details From PHKO - Kona Intl At Keahole
To YPDN - Darwin Intl
Flight Number -
Tags Generated
Created
Modified
Stats Distance 4,731 nm / 8,761 km
Max Altitude 0 ft / 0 m
Waypoints 4
Social Downloads 1
Likes 0
Share VATSIM

Download

Looking for another format? Having issues loading an existing format? Contact us
Advertisement - Login to hide

Notes

Generated

Route

PHKO TOZTU GLYDE YPDN

ID Type Via Altitude Latitude Longitude Leg Dist Tot Dist Heading (true) Name
O PHKO APT - 0 ft / 0 m 19.75386˚ -156.04429˚ - 0 nm - -
TOZTU FIX - 0 ft / 0 m 7.10806˚ 171.44786˚ 2039 nm 2039 nm 253° / 245° -
GLYDE FIX - 0 ft / 0 m -12.30891˚ 131.17289˚ 2672 nm 4711 nm 244° / 246° -
O YPDN APT - 0 ft / 0 m -12.40889˚ 130.87067˚ 18 nm 4730 nm 251° / 251° -

Altitude Profile

Advertisement - Login to hide

Weather


0- 5 10 15 20 25 30 35+ Temperature / ° C

Clouds and Precipitation
Forecast for 2018-05-26 06:00 UTC. Updated 3 hours ago

Ground ~20,000 ft ~40,000 ft Winds

PHKO

Details ICAO PHKO (KOA)
Name Kona Intl At Keahole
Region USA (Hawaii)
Timezone Pacific/Honolulu (UTC-10.0)
Stats Elevation 45 ft / 14 m (AMSL)
Location 19.739343° -156.045756°
Runways 1
Magnetic Variation 9.422° E

METAR

PHKO 260753Z 17006KT 10SM HZ CLR 27/18 A3007

Decode

TAF

PHKO 260537Z 2606/2706 VRB03KT P6SM SCT025 BKN050 FM262100 25008KT P6SM SCT025 SCT050 FM270500 VRB05KT P6SM FEW025 SCT050

Decode

Departure Runways

ID Width Length Bearing (true) Bearing (mag) Surface Threshold Offset Overrun Length
17 150 ft / 46 m 11,461 ft / 3,493 m 184.77° 175.35° Asphalt 407 ft / 124 m 0 ft / 0 m
35 150 ft / 46 m 11,461 ft / 3,493 m 4.77° 355.35° Asphalt 0 ft / 0 m 404 ft / 123 m

YPDN

Details ICAO YPDN (DRW)
Name Darwin Intl
Region Australia
Timezone Australia/Darwin (UTC+9.5)
Stats Elevation 102 ft / 31 m (AMSL)
Location -12.415064° 130.875278°
Runways 2
Magnetic Variation 2.631° E

METAR

YPDN 260800Z 35005KT CAVOK 29/21 Q1010 NOSIG

Decode

TAF

TAF YPDN 260514Z 2606/2712 33008KT 9999 FEW030 FM261200 14005KT CAVOK FM262100 10005KT 9999 FEW015 FM270000 09010KT CAVOK FM270600 02008KT CAVOK

Decode

Destination Runways

ID Width Length Bearing (true) Bearing (mag) Surface Threshold Offset Overrun Length
11 197 ft / 60 m 10,997 ft / 3,352 m 109.02° 106.39° Asphalt 0 ft / 0 m 0 ft / 0 m
18 98 ft / 30 m 5,029 ft / 1,533 m 179.85° 177.22° Asphalt 0 ft / 0 m 0 ft / 0 m
29 197 ft / 60 m 10,997 ft / 3,352 m 289.02° 286.39° Asphalt 0 ft / 0 m 0 ft / 0 m
36 98 ft / 30 m 5,029 ft / 1,533 m 359.85° 357.22° Asphalt 0 ft / 0 m 0 ft / 0 m

Approach Navaids

Runway Type Ident Frequency Range Bearing (true) Bearing (mag) Slope Elevation
29 Localiser IDN 109.70 MHz 18 nm / 33 km 289.00° 286.37° - 103 ft / 31 m (AMSL)
29 Glidescope IDN 109.70 MHz 10 nm / 19 km 289.02° 286.39° 3.00° 103 ft / 31 m (AMSL)

Popular Alternatives